createdAt,value
2023-11-30T00:01:44.833Z,17.85
2023-11-30T00:04:46.537Z,17.20
2023-11-30T00:07:48.353Z,16.07
2023-11-30T00:10:49.965Z,17.45
2023-11-30T00:13:51.758Z,16.60
2023-11-30T00:16:53.393Z,16.48
2023-11-30T00:19:55.038Z,15.37
2023-11-30T00:22:56.628Z,16.33
2023-11-30T00:25:58.230Z,16.27
2023-11-30T00:29:00.110Z,16.25
2023-11-30T00:32:01.675Z,16.65
2023-11-30T00:35:03.489Z,14.70
2023-11-30T00:38:07.248Z,17.20
2023-11-30T00:41:14.637Z,16.30
2023-11-30T00:44:18.999Z,13.35
2023-11-30T00:47:20.600Z,16.83
2023-11-30T00:50:22.562Z,14.03
2023-11-30T00:53:24.130Z,17.90
2023-11-30T00:56:25.726Z,13.77
2023-11-30T00:59:27.427Z,17.95
2023-11-30T01:02:29.121Z,15.90
2023-11-30T01:05:30.713Z,14.50
2023-11-30T01:08:32.285Z,14.87
2023-11-30T01:11:33.893Z,15.02
2023-11-30T01:14:35.532Z,11.93
2023-11-30T01:17:37.150Z,14.20
2023-11-30T01:20:38.716Z,14.60
2023-11-30T01:23:41.027Z,15.83
2023-11-30T01:26:42.720Z,12.38
2023-11-30T01:29:44.402Z,14.93
2023-11-30T01:32:46.040Z,10.93
2023-11-30T01:35:49.230Z,12.67
2023-11-30T01:38:51.021Z,11.07
2023-11-30T01:41:52.642Z,12.70
2023-11-30T01:44:54.362Z,12.60
2023-11-30T01:47:56.335Z,11.95
2023-11-30T01:50:58.636Z,11.00
2023-11-30T01:54:01.453Z,12.43
2023-11-30T01:57:04.511Z,10.85
2023-11-30T02:00:07.483Z,10.98
2023-11-30T02:03:09.590Z,10.93
2023-11-30T02:06:11.315Z,11.27
2023-11-30T02:09:13.649Z,10.30
2023-11-30T02:12:15.354Z,12.23
2023-11-30T02:15:17.601Z,10.00
2023-11-30T02:18:19.363Z,11.65
2023-11-30T02:21:21.003Z,10.10
2023-11-30T02:24:22.696Z,9.23
2023-11-30T02:27:24.393Z,10.68
2023-11-30T02:30:26.658Z,9.93
2023-11-30T02:33:28.384Z,10.38
2023-11-30T02:36:30.229Z,10.27
2023-11-30T02:39:31.952Z,10.40
2023-11-30T02:42:33.518Z,9.27
2023-11-30T02:45:35.242Z,9.27
2023-11-30T02:48:38.415Z,9.55
2023-11-30T02:51:40.042Z,8.70
2023-11-30T02:54:41.663Z,13.33
2023-11-30T02:57:43.238Z,11.18
2023-11-30T03:00:44.827Z,10.50
2023-11-30T03:03:46.547Z,11.07
2023-11-30T03:06:50.672Z,10.63
2023-11-30T03:09:52.426Z,8.90
2023-11-30T03:12:54.088Z,9.68
2023-11-30T03:15:55.903Z,11.00
2023-11-30T03:19:10.607Z,9.52
2023-11-30T03:22:18.175Z,10.57
2023-11-30T03:25:19.803Z,11.67
2023-11-30T03:28:21.486Z,11.25
2023-11-30T03:31:23.150Z,10.43
2023-11-30T03:34:24.716Z,9.70
2023-11-30T03:37:26.282Z,11.20
2023-11-30T03:40:28.034Z,12.03
2023-11-30T03:43:29.605Z,11.68
2023-11-30T03:46:31.284Z,12.20
2023-11-30T03:49:33.081Z,13.55
2023-11-30T03:52:34.653Z,11.90
2023-11-30T03:55:36.341Z,12.27
2023-11-30T03:58:38.006Z,13.02
2023-11-30T04:01:40.053Z,14.57
2023-11-30T04:04:42.973Z,13.10
2023-11-30T04:07:44.776Z,15.00
2023-11-30T04:10:46.504Z,16.23
2023-11-30T04:13:48.885Z,14.60
2023-11-30T04:16:50.531Z,13.60
2023-11-30T04:19:52.541Z,15.75
2023-11-30T04:22:54.215Z,16.00
2023-11-30T04:25:55.863Z,15.23
2023-11-30T04:28:57.439Z,15.68
2023-11-30T04:31:59.065Z,14.18
2023-11-30T04:35:00.733Z,14.68
2023-11-30T04:38:02.428Z,15.57
2023-11-30T04:41:04.263Z,15.63
2023-11-30T04:44:06.103Z,15.27
2023-11-30T04:47:07.797Z,13.00
2023-11-30T04:50:09.551Z,15.32
2023-11-30T04:53:11.119Z,15.47
2023-11-30T04:56:12.801Z,13.17
2023-11-30T04:59:14.440Z,14.85
2023-11-30T05:02:16.414Z,16.25
2023-11-30T05:05:18.425Z,16.30
2023-11-30T05:08:20.350Z,16.43
2023-11-30T05:11:22.015Z,14.40
2023-11-30T05:14:23.619Z,15.10
2023-11-30T05:17:25.175Z,14.20
2023-11-30T05:20:26.791Z,14.10
2023-11-30T05:23:28.371Z,16.80
2023-11-30T05:26:29.913Z,15.43
2023-11-30T05:29:31.512Z,17.55
2023-11-30T05:32:33.206Z,15.45
2023-11-30T05:35:36.162Z,16.23
2023-11-30T05:38:37.826Z,17.00
2023-11-30T05:41:39.519Z,17.67
2023-11-30T05:44:41.110Z,16.13
2023-11-30T05:47:42.813Z,14.65
2023-11-30T05:50:44.388Z,16.02
2023-11-30T05:53:46.155Z,17.30
2023-11-30T05:56:47.917Z,17.37
2023-11-30T05:59:49.748Z,18.65
2023-11-30T06:02:51.744Z,20.52
2023-11-30T06:05:53.423Z,15.88
2023-11-30T06:08:55.340Z,17.60
2023-11-30T06:11:57.014Z,16.93
2023-11-30T06:14:58.730Z,18.05
2023-11-30T06:18:00.536Z,19.27
2023-11-30T06:21:02.274Z,17.92
2023-11-30T06:24:04.158Z,18.70
2023-11-30T06:27:05.999Z,16.57
2023-11-30T06:30:08.753Z,16.40
2023-11-30T06:33:10.453Z,20.10
2023-11-30T06:36:12.469Z,17.48
2023-11-30T06:39:14.127Z,15.47
2023-11-30T06:42:15.853Z,18.37
2023-11-30T06:45:17.485Z,17.50
2023-11-30T06:48:19.305Z,17.05
2023-11-30T06:51:21.035Z,17.02
2023-11-30T06:54:23.581Z,17.80
2023-11-30T06:57:25.416Z,19.77
2023-11-30T07:00:28.195Z,19.63
2023-11-30T07:03:32.131Z,22.60
2023-11-30T07:06:39.647Z,18.27
2023-11-30T07:09:41.352Z,19.90
2023-11-30T07:12:43.145Z,18.20
2023-11-30T07:15:44.979Z,17.40
2023-11-30T07:18:46.723Z,19.85
2023-11-30T07:21:50.323Z,16.17
2023-11-30T07:24:52.777Z,18.87
2023-11-30T07:27:55.081Z,20.57
2023-11-30T07:30:57.169Z,20.77
2023-11-30T07:33:59.748Z,19.35
2023-11-30T07:37:03.462Z,19.73
2023-11-30T07:40:07.709Z,21.93
2023-11-30T07:43:09.396Z,23.90
2023-11-30T07:46:11.216Z,24.20
2023-11-30T07:49:12.933Z,22.13
2023-11-30T07:52:14.922Z,23.02
2023-11-30T07:55:16.840Z,23.47
2023-11-30T07:58:18.494Z,25.07
2023-11-30T08:01:20.185Z,24.27
2023-11-30T08:04:21.842Z,27.50
2023-11-30T08:07:23.621Z,24.40
2023-11-30T08:10:26.911Z,23.23
2023-11-30T08:13:28.715Z,24.70
2023-11-30T08:16:31.461Z,25.45
2023-11-30T08:19:33.973Z,25.10
2023-11-30T08:22:35.615Z,26.92
2023-11-30T08:25:37.509Z,25.33
2023-11-30T08:28:39.209Z,27.97
2023-11-30T08:31:40.813Z,26.98
2023-11-30T08:34:42.420Z,29.83
2023-11-30T08:37:44.039Z,28.13
2023-11-30T08:40:45.665Z,23.23
2023-11-30T08:43:48.795Z,25.90
2023-11-30T08:46:51.034Z,27.83
2023-11-30T08:49:52.679Z,25.80
2023-11-30T08:52:54.299Z,26.27
2023-11-30T08:55:56.042Z,29.73
2023-11-30T08:58:57.642Z,31.67
2023-11-30T09:01:59.344Z,26.95
2023-11-30T09:05:00.977Z,31.35
2023-11-30T09:08:03.198Z,26.67
2023-11-30T09:11:06.476Z,27.90
2023-11-30T09:14:08.129Z,28.03
2023-11-30T09:17:09.781Z,24.35
2023-11-30T09:20:11.545Z,25.10
2023-11-30T09:23:13.241Z,24.17
2023-11-30T09:26:14.894Z,24.60
2023-11-30T09:29:16.675Z,26.70
2023-11-30T09:32:18.332Z,25.92
2023-11-30T09:35:20.003Z,25.25
2023-11-30T09:38:21.614Z,26.13
2023-11-30T09:41:24.550Z,25.70
2023-11-30T09:44:26.166Z,24.10
2023-11-30T09:47:28.072Z,26.40
2023-11-30T09:50:29.773Z,27.15
2023-11-30T09:53:31.413Z,28.63
2023-11-30T09:56:33.465Z,26.50
2023-11-30T09:59:35.181Z,29.37
2023-11-30T10:02:36.825Z,28.48
2023-11-30T10:05:38.798Z,31.75
2023-11-30T10:08:40.867Z,32.80
2023-11-30T10:11:42.920Z,28.73
2023-11-30T10:14:44.570Z,31.47
2023-11-30T10:17:48.925Z,31.48
2023-11-30T10:20:50.623Z,30.83
2023-11-30T10:23:52.311Z,29.40
2023-11-30T10:26:54.452Z,28.83
2023-11-30T10:30:02.818Z,27.13
2023-11-30T10:33:06.301Z,34.45
2023-11-30T10:36:09.131Z,29.02
2023-11-30T10:39:18.121Z,28.60
2023-11-30T10:42:21.289Z,28.33
2023-11-30T10:45:24.143Z,28.80
2023-11-30T10:48:28.289Z,29.83
2023-11-30T10:51:30.760Z,28.00
2023-11-30T10:54:58.947Z,29.58
2023-11-30T10:58:05.370Z,30.73
2023-11-30T11:01:09.751Z,28.53
2023-11-30T11:04:14.567Z,30.00
2023-11-30T11:07:18.101Z,32.20
2023-11-30T11:10:40.107Z,37.63
2023-11-30T11:13:47.454Z,30.70
2023-11-30T11:16:50.465Z,32.83
2023-11-30T11:19:54.155Z,29.58
2023-11-30T11:23:05.006Z,32.47
2023-11-30T11:26:08.681Z,34.08
2023-11-30T11:29:13.568Z,31.40
2023-11-30T11:32:16.395Z,33.37
2023-11-30T11:35:19.185Z,32.17
2023-11-30T11:38:21.189Z,34.30
2023-11-30T11:41:23.338Z,29.17
2023-11-30T11:44:25.806Z,30.60
2023-11-30T11:47:27.583Z,29.90
2023-11-30T11:50:29.538Z,31.02
2023-11-30T11:53:31.489Z,30.15
2023-11-30T11:56:33.438Z,30.55
2023-11-30T11:59:35.398Z,29.77
2023-11-30T12:02:37.918Z,28.17
2023-11-30T12:05:49.185Z,24.35
2023-11-30T12:08:51.517Z,27.45
2023-11-30T12:11:55.504Z,31.38
2023-11-30T12:14:57.192Z,28.30
2023-11-30T12:17:59.601Z,26.27
2023-11-30T12:21:01.394Z,23.63
2023-11-30T12:24:03.880Z,28.13
2023-11-30T12:27:05.674Z,24.13
2023-11-30T12:30:09.595Z,24.50
2023-11-30T12:33:15.066Z,22.80
2023-11-30T12:36:17.687Z,26.08
2023-11-30T12:39:19.819Z,26.48
2023-11-30T12:42:21.621Z,22.60
2023-11-30T12:45:23.427Z,26.47
2023-11-30T12:48:25.180Z,24.80
2023-11-30T12:51:27.076Z,23.55
2023-11-30T12:54:28.884Z,25.42
2023-11-30T12:57:35.146Z,22.83
2023-11-30T13:00:37.329Z,24.80
2023-11-30T13:03:39.177Z,27.70
2023-11-30T13:06:41.687Z,21.75
2023-11-30T13:09:44.017Z,21.58
2023-11-30T13:12:45.780Z,24.35
2023-11-30T13:15:47.594Z,22.60
2023-11-30T13:18:49.476Z,22.13
2023-11-30T13:21:53.361Z,20.08
2023-11-30T13:24:57.654Z,22.48
2023-11-30T13:28:01.393Z,25.90
2023-11-30T13:31:03.468Z,23.97
2023-11-30T13:34:06.210Z,18.03
2023-11-30T13:37:08.026Z,17.83
2023-11-30T13:40:11.179Z,17.58
2023-11-30T13:43:12.834Z,19.67
2023-11-30T13:46:15.715Z,19.07
2023-11-30T13:49:17.614Z,20.63
2023-11-30T13:52:19.354Z,21.17
2023-11-30T13:55:21.106Z,21.23
2023-11-30T13:58:23.632Z,20.95
2023-11-30T14:01:25.790Z,19.97
2023-11-30T14:04:27.662Z,19.17
2023-11-30T14:07:30.978Z,20.13
2023-11-30T14:10:32.705Z,19.95
2023-11-30T14:13:34.538Z,20.98
2023-11-30T14:16:36.504Z,19.13
2023-11-30T14:19:38.252Z,17.83
2023-11-30T14:22:39.980Z,17.67
2023-11-30T14:25:41.784Z,17.13
2023-11-30T14:28:49.090Z,16.73
2023-11-30T14:31:50.919Z,17.00
2023-11-30T14:34:52.708Z,18.13
2023-11-30T14:37:54.774Z,18.55
2023-11-30T14:40:56.442Z,19.85
2023-11-30T14:43:58.383Z,18.88
2023-11-30T14:47:00.494Z,18.03
2023-11-30T14:50:02.338Z,15.60
2023-11-30T14:53:05.608Z,15.15
2023-11-30T14:56:08.703Z,15.63
2023-11-30T14:59:10.491Z,21.38
2023-11-30T15:02:12.320Z,17.20
2023-11-30T15:05:16.019Z,16.27
2023-11-30T15:08:18.525Z,15.00
2023-11-30T15:11:20.395Z,12.57
2023-11-30T15:14:22.085Z,12.88
2023-11-30T15:17:24.344Z,13.23
2023-11-30T15:20:26.064Z,17.90
2023-11-30T15:23:27.717Z,12.60
2023-11-30T15:26:29.845Z,14.10
2023-11-30T15:29:31.589Z,11.45
2023-11-30T15:32:33.356Z,11.10
2023-11-30T15:35:35.682Z,10.33
2023-11-30T15:38:38.987Z,10.25
2023-11-30T15:41:44.888Z,11.80
2023-11-30T15:44:47.334Z,11.73
2023-11-30T15:47:52.616Z,14.20
2023-11-30T15:50:54.562Z,12.90
2023-11-30T15:53:56.314Z,12.65
2023-11-30T15:56:57.998Z,16.08
2023-11-30T15:59:59.826Z,11.95
2023-11-30T16:03:03.968Z,13.83
2023-11-30T16:06:12.122Z,13.97
2023-11-30T16:09:14.028Z,14.70
2023-11-30T16:12:15.823Z,13.27
2023-11-30T16:15:17.572Z,13.30
2023-11-30T16:18:19.605Z,13.07
2023-11-30T16:21:21.575Z,15.07
2023-11-30T16:24:24.257Z,12.18
2023-11-30T16:27:28.217Z,11.85
2023-11-30T16:30:30.180Z,13.30
2023-11-30T16:33:31.936Z,14.23
2023-11-30T16:36:34.141Z,11.00
2023-11-30T16:39:36.759Z,13.05
2023-11-30T16:42:39.258Z,13.10
2023-11-30T16:45:40.983Z,18.23
2023-11-30T16:48:47.096Z,17.60
2023-11-30T16:51:52.685Z,12.20
2023-11-30T16:54:57.517Z,13.32
2023-11-30T16:57:59.904Z,11.07
2023-11-30T17:01:01.699Z,10.93
2023-11-30T17:04:07.425Z,13.83
2023-11-30T17:07:09.237Z,11.23
2023-11-30T17:10:10.959Z,11.27
2023-11-30T17:13:13.730Z,10.55
2023-11-30T17:16:15.432Z,11.15
2023-11-30T17:19:17.184Z,12.87
2023-11-30T17:22:19.094Z,12.23
2023-11-30T17:25:21.266Z,12.45
2023-11-30T17:28:22.982Z,12.90
2023-11-30T17:31:24.714Z,11.23
2023-11-30T17:34:28.622Z,12.67
2023-11-30T17:37:30.570Z,11.53
2023-11-30T17:40:32.311Z,10.15
2023-11-30T17:43:34.052Z,11.77
2023-11-30T17:46:35.953Z,13.18
2023-11-30T17:49:37.708Z,10.90
2023-11-30T17:52:39.586Z,11.50
2023-11-30T17:55:41.272Z,11.05
2023-11-30T17:58:42.924Z,11.30
2023-11-30T18:01:44.652Z,11.88
2023-11-30T18:04:46.376Z,9.90
2023-11-30T18:07:48.084Z,10.23
2023-11-30T18:10:50.008Z,17.13
2023-11-30T18:13:51.665Z,11.90
2023-11-30T18:16:53.403Z,13.57
2023-11-30T18:19:55.857Z,11.93
2023-11-30T18:22:57.596Z,10.90
2023-11-30T18:25:59.388Z,13.48
2023-11-30T18:29:01.060Z,12.82
2023-11-30T18:32:04.063Z,11.88
2023-11-30T18:35:06.130Z,13.87
2023-11-30T18:38:08.652Z,12.10
2023-11-30T18:41:10.365Z,10.85
2023-11-30T18:44:13.192Z,9.18
2023-11-30T18:47:17.645Z,10.10
2023-11-30T18:50:19.535Z,9.67
2023-11-30T18:53:21.186Z,11.10
2023-11-30T18:56:24.339Z,9.80
2023-11-30T18:59:28.914Z,10.73
2023-11-30T19:02:30.764Z,10.65
2023-11-30T19:05:32.481Z,9.70
2023-11-30T19:08:35.655Z,9.17
2023-11-30T19:11:37.296Z,9.57
2023-11-30T19:14:40.583Z,10.95
2023-11-30T19:17:49.207Z,10.00
2023-11-30T19:20:51.248Z,9.57
2023-11-30T19:23:53.300Z,10.20
2023-11-30T19:26:55.004Z,10.18
2023-11-30T19:29:56.784Z,10.88
2023-11-30T19:33:00.884Z,12.20
2023-11-30T19:36:03.004Z,9.53
2023-11-30T19:39:07.325Z,9.70
2023-11-30T19:42:09.008Z,9.40
2023-11-30T19:45:10.932Z,11.13
2023-11-30T19:48:12.693Z,10.07
2023-11-30T19:51:17.570Z,11.03
2023-11-30T19:54:19.452Z,10.97
2023-11-30T19:57:21.280Z,12.85
2023-11-30T20:00:23.177Z,11.30
2023-11-30T20:03:24.864Z,11.20
2023-11-30T20:06:26.704Z,11.27
2023-11-30T20:09:28.371Z,14.53
2023-11-30T20:12:30.144Z,10.80
2023-11-30T20:15:34.226Z,10.45
2023-11-30T20:18:37.630Z,10.93
2023-11-30T20:21:39.495Z,11.83
2023-11-30T20:24:41.199Z,11.40
2023-11-30T20:27:43.760Z,10.32
2023-11-30T20:30:46.074Z,13.27
2023-11-30T20:33:51.183Z,10.60
2023-11-30T20:36:52.955Z,12.17
2023-11-30T20:39:54.768Z,11.10
2023-11-30T20:42:56.595Z,10.20
2023-11-30T20:45:58.472Z,18.10
2023-11-30T20:49:00.237Z,10.38
2023-11-30T20:52:02.158Z,11.07
2023-11-30T20:55:04.604Z,10.83
2023-11-30T20:58:06.523Z,11.32
2023-11-30T21:01:08.625Z,12.32
2023-11-30T21:04:10.451Z,11.73
2023-11-30T21:07:12.159Z,12.27
2023-11-30T21:10:15.414Z,11.13
2023-11-30T21:13:20.362Z,11.52
2023-11-30T21:16:22.211Z,10.18
2023-11-30T21:19:23.923Z,10.25
2023-11-30T21:22:26.995Z,10.93
2023-11-30T21:25:28.704Z,12.70
2023-11-30T21:28:30.447Z,10.90
2023-11-30T21:31:32.235Z,11.80
2023-11-30T21:34:36.091Z,13.68
2023-11-30T21:37:37.826Z,10.43
2023-11-30T21:40:39.605Z,13.70
2023-11-30T21:43:41.275Z,12.82
2023-11-30T21:46:43.020Z,11.85
2023-11-30T21:49:48.090Z,11.05
2023-11-30T21:52:49.872Z,13.07
2023-11-30T21:55:51.552Z,10.17
2023-11-30T21:58:53.342Z,11.68
2023-11-30T22:01:55.177Z,13.45
2023-11-30T22:04:57.178Z,10.98
2023-11-30T22:07:59.279Z,12.73
2023-11-30T22:11:00.959Z,10.90
2023-11-30T22:14:02.634Z,11.55
2023-11-30T22:17:04.623Z,10.68
2023-11-30T22:20:09.085Z,9.18
2023-11-30T22:23:10.921Z,9.87
2023-11-30T22:26:12.754Z,11.80
2023-11-30T22:29:14.425Z,10.80
2023-11-30T22:32:16.098Z,9.77
2023-11-30T22:35:18.258Z,11.30
2023-11-30T22:38:19.989Z,11.40
2023-11-30T22:41:21.689Z,12.17
2023-11-30T22:44:23.377Z,11.63
2023-11-30T22:47:26.034Z,12.50
2023-11-30T22:50:27.861Z,12.85
2023-11-30T22:53:29.570Z,11.67
2023-11-30T22:56:31.406Z,13.57
2023-11-30T22:59:34.640Z,10.77
2023-11-30T23:02:36.703Z,9.88
2023-11-30T23:05:39.158Z,10.23
2023-11-30T23:08:41.089Z,11.07
2023-11-30T23:11:43.087Z,11.47
2023-11-30T23:14:44.792Z,11.25
2023-11-30T23:17:46.506Z,11.18
2023-11-30T23:20:48.261Z,12.68
2023-11-30T23:23:50.080Z,10.57
2023-11-30T23:26:51.803Z,10.30
2023-11-30T23:29:53.500Z,10.88
2023-11-30T23:32:55.966Z,11.70
2023-11-30T23:35:57.823Z,10.65
2023-11-30T23:39:04.298Z,9.70
2023-11-30T23:42:06.181Z,11.63
2023-11-30T23:45:08.598Z,11.63
2023-11-30T23:48:10.400Z,11.23
2023-11-30T23:51:12.136Z,11.27
2023-11-30T23:54:13.962Z,10.83
2023-11-30T23:57:15.675Z,10.43
